sensor_id;sensor_type;location;lat;lon;timestamp;temperature;humidity
75985;DHT22;65033;44.660;37.758;2023-01-05T00:01:01;26.98;39.52
75985;DHT22;65033;44.660;37.758;2023-01-05T00:02:15;26.97;39.53
75985;DHT22;65033;44.660;37.758;2023-01-05T00:03:32;26.97;39.46
75985;DHT22;65033;44.660;37.758;2023-01-05T00:04:45;26.96;39.40
75985;DHT22;65033;44.660;37.758;2023-01-05T00:05:59;26.96;39.43
75985;DHT22;65033;44.660;37.758;2023-01-05T00:07:12;26.96;39.43
75985;DHT22;65033;44.660;37.758;2023-01-05T00:08:26;26.95;39.39
75985;DHT22;65033;44.660;37.758;2023-01-05T00:09:41;26.95;39.47
75985;DHT22;65033;44.660;37.758;2023-01-05T00:10:55;26.96;39.42
75985;DHT22;65033;44.660;37.758;2023-01-05T00:12:28;26.95;39.29
75985;DHT22;65033;44.660;37.758;2023-01-05T00:14:00;26.95;39.36
75985;DHT22;65033;44.660;37.758;2023-01-05T00:15:32;26.94;39.31
75985;DHT22;65033;44.660;37.758;2023-01-05T00:17:05;26.95;39.35
75985;DHT22;65033;44.660;37.758;2023-01-05T00:18:37;26.96;39.30
75985;DHT22;65033;44.660;37.758;2023-01-05T00:20:13;26.95;39.21
75985;DHT22;65033;44.660;37.758;2023-01-05T00:21:46;26.94;39.17
75985;DHT22;65033;44.660;37.758;2023-01-05T00:23:18;26.93;39.14
75985;DHT22;65033;44.660;37.758;2023-01-05T00:24:31;26.92;39.16
75985;DHT22;65033;44.660;37.758;2023-01-05T00:25:45;26.93;39.12
75985;DHT22;65033;44.660;37.758;2023-01-05T00:26:58;26.93;39.22
75985;DHT22;65033;44.660;37.758;2023-01-05T00:28:13;26.92;39.15
75985;DHT22;65033;44.660;37.758;2023-01-05T00:29:26;26.92;39.09
75985;DHT22;65033;44.660;37.758;2023-01-05T00:30:41;26.93;39.10
75985;DHT22;65033;44.660;37.758;2023-01-05T00:31:55;26.93;39.14
75985;DHT22;65033;44.660;37.758;2023-01-05T00:33:08;26.92;39.16
75985;DHT22;65033;44.660;37.758;2023-01-05T00:34:22;26.92;39.09
75985;DHT22;65033;44.660;37.758;2023-01-05T00:35:35;26.93;39.07
75985;DHT22;65033;44.660;37.758;2023-01-05T00:36:48;26.92;39.01
75985;DHT22;65033;44.660;37.758;2023-01-05T00:38:02;26.93;38.99
75985;DHT22;65033;44.660;37.758;2023-01-05T00:39:16;26.93;38.98
75985;DHT22;65033;44.660;37.758;2023-01-05T00:40:29;26.92;39.03
75985;DHT22;65033;44.660;37.758;2023-01-05T00:41:42;26.94;39.01
75985;DHT22;65033;44.660;37.758;2023-01-05T00:42:56;26.93;38.91
75985;DHT22;65033;44.660;37.758;2023-01-05T00:44:11;26.92;38.85
75985;DHT22;65033;44.660;37.758;2023-01-05T00:45:24;26.93;38.80
75985;DHT22;65033;44.660;37.758;2023-01-05T00:46:38;26.93;38.85
75985;DHT22;65033;44.660;37.758;2023-01-05T00:47:51;26.91;38.79
75985;DHT22;65033;44.660;37.758;2023-01-05T00:49:07;26.91;38.82
75985;DHT22;65033;44.660;37.758;2023-01-05T00:50:21;26.90;38.87
75985;DHT22;65033;44.660;37.758;2023-01-05T00:51:34;26.93;38.79
75985;DHT22;65033;44.660;37.758;2023-01-05T00:52:48;26.90;38.78
75985;DHT22;65033;44.660;37.758;2023-01-05T00:54:01;26.90;38.72
75985;DHT22;65033;44.660;37.758;2023-01-05T00:55:17;26.91;38.67
75985;DHT22;65033;44.660;37.758;2023-01-05T00:56:31;26.91;38.65
75985;DHT22;65033;44.660;37.758;2023-01-05T00:57:44;26.91;38.69
75985;DHT22;65033;44.660;37.758;2023-01-05T00:58:58;26.91;38.67
75985;DHT22;65033;44.660;37.758;2023-01-05T01:00:15;26.91;38.54
75985;DHT22;65033;44.660;37.758;2023-01-05T01:01:30;26.91;38.61
75985;DHT22;65033;44.660;37.758;2023-01-05T01:02:44;26.91;38.58
75985;DHT22;65033;44.660;37.758;2023-01-05T01:03:58;26.91;38.54
75985;DHT22;65033;44.660;37.758;2023-01-05T01:05:11;26.90;38.53
75985;DHT22;65033;44.660;37.758;2023-01-05T01:06:26;26.92;38.41
75985;DHT22;65033;44.660;37.758;2023-01-05T01:07:40;26.91;38.43
75985;DHT22;65033;44.660;37.758;2023-01-05T01:08:53;26.90;38.48
75985;DHT22;65033;44.660;37.758;2023-01-05T01:10:08;26.91;38.40
75985;DHT22;65033;44.660;37.758;2023-01-05T01:11:21;26.91;38.35
75985;DHT22;65033;44.660;37.758;2023-01-05T01:12:35;26.91;38.43
75985;DHT22;65033;44.660;37.758;2023-01-05T01:13:48;26.91;38.42
75985;DHT22;65033;44.660;37.758;2023-01-05T01:15:02;26.90;38.40
75985;DHT22;65033;44.660;37.758;2023-01-05T01:16:19;26.90;38.28
75985;DHT22;65033;44.660;37.758;2023-01-05T01:17:32;26.87;38.33
75985;DHT22;65033;44.660;37.758;2023-01-05T01:18:46;26.91;38.30
75985;DHT22;65033;44.660;37.758;2023-01-05T01:19:59;26.91;38.30
75985;DHT22;65033;44.660;37.758;2023-01-05T01:21:13;26.91;38.25
75985;DHT22;65033;44.660;37.758;2023-01-05T01:22:27;26.91;38.24
75985;DHT22;65033;44.660;37.758;2023-01-05T01:23:40;26.89;38.28
75985;DHT22;65033;44.660;37.758;2023-01-05T01:24:54;26.90;38.13
75985;DHT22;65033;44.660;37.758;2023-01-05T01:26:09;26.90;38.18
75985;DHT22;65033;44.660;37.758;2023-01-05T01:27:23;26.91;38.17
75985;DHT22;65033;44.660;37.758;2023-01-05T01:28:37;26.92;38.12
75985;DHT22;65033;44.660;37.758;2023-01-05T01:29:50;26.90;38.09
75985;DHT22;65033;44.660;37.758;2023-01-05T01:31:05;26.89;38.07
75985;DHT22;65033;44.660;37.758;2023-01-05T01:32:20;26.90;37.98
75985;DHT22;65033;44.660;37.758;2023-01-05T01:33:38;26.91;38.10
75985;DHT22;65033;44.660;37.758;2023-01-05T01:34:52;26.89;37.95
75985;DHT22;65033;44.660;37.758;2023-01-05T01:36:08;26.87;38.04
75985;DHT22;65033;44.660;37.758;2023-01-05T01:37:21;26.89;38.01
75985;DHT22;65033;44.660;37.758;2023-01-05T01:38:38;26.89;37.94
75985;DHT22;65033;44.660;37.758;2023-01-05T01:39:51;26.89;37.95
75985;DHT22;65033;44.660;37.758;2023-01-05T01:41:05;26.90;37.91
75985;DHT22;65033;44.660;37.758;2023-01-05T01:42:20;26.90;37.91
75985;DHT22;65033;44.660;37.758;2023-01-05T01:43:43;26.87;37.76
75985;DHT22;65033;44.660;37.758;2023-01-05T01:44:59;26.89;37.78
75985;DHT22;65033;44.660;37.758;2023-01-05T01:46:19;26.90;37.81
75985;DHT22;65033;44.660;37.758;2023-01-05T01:47:39;26.87;37.74
75985;DHT22;65033;44.660;37.758;2023-01-05T01:48:57;26.86;37.72
75985;DHT22;65033;44.660;37.758;2023-01-05T01:50:14;26.85;37.66
75985;DHT22;65033;44.660;37.758;2023-01-05T01:51:32;26.86;37.81
75985;DHT22;65033;44.660;37.758;2023-01-05T01:52:49;26.85;37.92
75985;DHT22;65033;44.660;37.758;2023-01-05T01:54:06;26.85;37.81
75985;DHT22;65033;44.660;37.758;2023-01-05T01:55:21;26.85;37.69
75985;DHT22;65033;44.660;37.758;2023-01-05T01:56:38;26.87;37.58
75985;DHT22;65033;44.660;37.758;2023-01-05T01:57:54;26.87;37.72
75985;DHT22;65033;44.660;37.758;2023-01-05T01:59:08;26.86;37.66
75985;DHT22;65033;44.660;37.758;2023-01-05T02:00:22;26.87;37.50
75985;DHT22;65033;44.660;37.758;2023-01-05T02:01:37;26.87;37.66
75985;DHT22;65033;44.660;37.758;2023-01-05T02:02:54;26.86;37.56
75985;DHT22;65033;44.660;37.758;2023-01-05T02:04:09;26.87;37.62
75985;DHT22;65033;44.660;37.758;2023-01-05T02:05:27;26.89;37.61
75985;DHT22;65033;44.660;37.758;2023-01-05T02:06:41;26.89;37.52
75985;DHT22;65033;44.660;37.758;2023-01-05T02:07:55;26.85;37.45
75985;DHT22;65033;44.660;37.758;2023-01-05T02:09:08;26.87;37.53
75985;DHT22;65033;44.660;37.758;2023-01-05T02:10:31;26.87;37.40
75985;DHT22;65033;44.660;37.758;2023-01-05T02:11:53;26.86;37.36
75985;DHT22;65033;44.660;37.758;2023-01-05T02:13:22;26.86;37.32
75985;DHT22;65033;44.660;37.758;2023-01-05T02:14:48;26.85;37.39
75985;DHT22;65033;44.660;37.758;2023-01-05T02:16:10;26.85;37.45
75985;DHT22;65033;44.660;37.758;2023-01-05T02:17:36;26.84;37.34
75985;DHT22;65033;44.660;37.758;2023-01-05T02:19:14;26.84;37.30
75985;DHT22;65033;44.660;37.758;2023-01-05T02:20:46;26.84;37.23
75985;DHT22;65033;44.660;37.758;2023-01-05T02:22:18;26.83;37.33
75985;DHT22;65033;44.660;37.758;2023-01-05T02:23:59;26.84;37.28
75985;DHT22;65033;44.660;37.758;2023-01-05T02:25:37;26.82;37.15
75985;DHT22;65033;44.660;37.758;2023-01-05T02:27:29;26.83;37.21
75985;DHT22;65033;44.660;37.758;2023-01-05T02:29:05;26.82;37.20
75985;DHT22;65033;44.660;37.758;2023-01-05T02:30:55;26.83;37.13
75985;DHT22;65033;44.660;37.758;2023-01-05T02:32:21;26.82;37.07
75985;DHT22;65033;44.660;37.758;2023-01-05T02:33:55;26.82;37.09
75985;DHT22;65033;44.660;37.758;2023-01-05T02:35:17;26.81;37.13
75985;DHT22;65033;44.660;37.758;2023-01-05T02:36:38;26.82;37.05
75985;DHT22;65033;44.660;37.758;2023-01-05T02:38:00;26.81;36.99
75985;DHT22;65033;44.660;37.758;2023-01-05T02:39:17;26.80;37.18
75985;DHT22;65033;44.660;37.758;2023-01-05T02:40:36;26.81;37.01
75985;DHT22;65033;44.660;37.758;2023-01-05T02:41:55;26.82;37.03
75985;DHT22;65033;44.660;37.758;2023-01-05T02:43:12;26.81;36.95
75985;DHT22;65033;44.660;37.758;2023-01-05T02:44:30;26.80;36.97
75985;DHT22;65033;44.660;37.758;2023-01-05T02:45:44;26.80;37.00
75985;DHT22;65033;44.660;37.758;2023-01-05T02:47:02;26.82;36.93
75985;DHT22;65033;44.660;37.758;2023-01-05T02:48:16;26.81;36.96
75985;DHT22;65033;44.660;37.758;2023-01-05T02:49:33;26.80;36.88
75985;DHT22;65033;44.660;37.758;2023-01-05T02:50:53;26.80;36.94
75985;DHT22;65033;44.660;37.758;2023-01-05T02:52:14;26.80;36.86
75985;DHT22;65033;44.660;37.758;2023-01-05T02:53:30;26.81;36.88
75985;DHT22;65033;44.660;37.758;2023-01-05T02:54:49;26.81;37.01
75985;DHT22;65033;44.660;37.758;2023-01-05T02:56:10;26.80;36.90
75985;DHT22;65033;44.660;37.758;2023-01-05T02:57:31;26.79;36.92
75985;DHT22;65033;44.660;37.758;2023-01-05T02:59:07;26.81;36.82
75985;DHT22;65033;44.660;37.758;2023-01-05T03:00:28;26.81;36.85
75985;DHT22;65033;44.660;37.758;2023-01-05T03:01:46;26.82;36.91
75985;DHT22;65033;44.660;37.758;2023-01-05T03:03:07;26.81;36.86
75985;DHT22;65033;44.660;37.758;2023-01-05T03:04:26;26.81;36.73
75985;DHT22;65033;44.660;37.758;2023-01-05T03:05:48;26.82;36.76
75985;DHT22;65033;44.660;37.758;2023-01-05T03:07:07;26.81;36.69
75985;DHT22;65033;44.660;37.758;2023-01-05T03:08:26;26.82;36.79
75985;DHT22;65033;44.660;37.758;2023-01-05T03:09:46;26.80;36.66
75985;DHT22;65033;44.660;37.758;2023-01-05T03:11:02;26.80;36.70
75985;DHT22;65033;44.660;37.758;2023-01-05T03:12:36;26.80;36.67
75985;DHT22;65033;44.660;37.758;2023-01-05T03:14:13;26.80;36.62
75985;DHT22;65033;44.660;37.758;2023-01-05T03:15:30;26.80;36.63
75985;DHT22;65033;44.660;37.758;2023-01-05T03:16:46;26.80;36.55
75985;DHT22;65033;44.660;37.758;2023-01-05T03:18:04;26.79;36.58
75985;DHT22;65033;44.660;37.758;2023-01-05T03:19:20;26.78;36.62
75985;DHT22;65033;44.660;37.758;2023-01-05T03:20:54;26.78;36.59
75985;DHT22;65033;44.660;37.758;2023-01-05T03:22:12;26.78;36.57
75985;DHT22;65033;44.660;37.758;2023-01-05T03:23:47;26.77;36.49
75985;DHT22;65033;44.660;37.758;2023-01-05T03:25:21;26.78;36.58
75985;DHT22;65033;44.660;37.758;2023-01-05T03:26:54;26.77;36.50
75985;DHT22;65033;44.660;37.758;2023-01-05T03:28:31;26.78;36.52
75985;DHT22;65033;44.660;37.758;2023-01-05T03:30:09;26.78;36.38
75985;DHT22;65033;44.660;37.758;2023-01-05T03:31:46;26.78;36.52
75985;DHT22;65033;44.660;37.758;2023-01-05T03:33:28;26.76;36.34
75985;DHT22;65033;44.660;37.758;2023-01-05T03:35:04;26.77;36.24
75985;DHT22;65033;44.660;37.758;2023-01-05T03:36:44;26.75;36.37
75985;DHT22;65033;44.660;37.758;2023-01-05T03:38:06;26.76;36.41
75985;DHT22;65033;44.660;37.758;2023-01-05T03:39:28;26.76;36.37
75985;DHT22;65033;44.660;37.758;2023-01-05T03:40:45;26.75;36.41
75985;DHT22;65033;44.660;37.758;2023-01-05T03:42:04;26.77;36.36
75985;DHT22;65033;44.660;37.758;2023-01-05T03:43:18;26.73;36.42
75985;DHT22;65033;44.660;37.758;2023-01-05T03:44:34;26.73;36.39
75985;DHT22;65033;44.660;37.758;2023-01-05T03:45:52;26.75;36.25
75985;DHT22;65033;44.660;37.758;2023-01-05T03:47:09;26.75;36.35
75985;DHT22;65033;44.660;37.758;2023-01-05T03:48:26;26.73;36.23
75985;DHT22;65033;44.660;37.758;2023-01-05T03:49:41;26.76;36.24
75985;DHT22;65033;44.660;37.758;2023-01-05T03:50:54;26.75;36.24
75985;DHT22;65033;44.660;37.758;2023-01-05T03:52:10;26.75;36.27
75985;DHT22;65033;44.660;37.758;2023-01-05T03:53:26;26.75;36.24
75985;DHT22;65033;44.660;37.758;2023-01-05T03:54:39;26.75;36.17
75985;DHT22;65033;44.660;37.758;2023-01-05T03:55:53;26.75;36.31
75985;DHT22;65033;44.660;37.758;2023-01-05T03:57:08;26.76;36.28
75985;DHT22;65033;44.660;37.758;2023-01-05T03:58:23;26.75;36.24
75985;DHT22;65033;44.660;37.758;2023-01-05T03:59:36;26.77;36.18
75985;DHT22;65033;44.660;37.758;2023-01-05T04:00:50;26.76;36.24
75985;DHT22;65033;44.660;37.758;2023-01-05T04:02:07;26.77;36.14
75985;DHT22;65033;44.660;37.758;2023-01-05T04:03:21;26.78;36.08
75985;DHT22;65033;44.660;37.758;2023-01-05T04:04:39;26.78;36.15
75985;DHT22;65033;44.660;37.758;2023-01-05T04:05:54;26.78;36.11
75985;DHT22;65033;44.660;37.758;2023-01-05T04:07:10;26.78;36.02
75985;DHT22;65033;44.660;37.758;2023-01-05T04:08:24;26.78;35.94
75985;DHT22;65033;44.660;37.758;2023-01-05T04:09:38;26.77;35.97
75985;DHT22;65033;44.660;37.758;2023-01-05T04:10:52;26.78;35.85
75985;DHT22;65033;44.660;37.758;2023-01-05T04:12:06;26.78;35.89
75985;DHT22;65033;44.660;37.758;2023-01-05T04:13:24;26.77;35.93
75985;DHT22;65033;44.660;37.758;2023-01-05T04:14:40;26.77;35.80
75985;DHT22;65033;44.660;37.758;2023-01-05T04:15:53;26.77;35.80
75985;DHT22;65033;44.660;37.758;2023-01-05T04:17:07;26.77;35.75
75985;DHT22;65033;44.660;37.758;2023-01-05T04:18:22;26.77;35.66
75985;DHT22;65033;44.660;37.758;2023-01-05T04:19:36;26.77;35.69
75985;DHT22;65033;44.660;37.758;2023-01-05T04:20:51;26.78;35.66
75985;DHT22;65033;44.660;37.758;2023-01-05T04:22:04;26.78;35.67
75985;DHT22;65033;44.660;37.758;2023-01-05T04:23:18;26.78;35.72
75985;DHT22;65033;44.660;37.758;2023-01-05T04:24:32;26.77;35.69
75985;DHT22;65033;44.660;37.758;2023-01-05T04:25:47;26.78;35.77
75985;DHT22;65033;44.660;37.758;2023-01-05T04:27:05;26.79;35.65
75985;DHT22;65033;44.660;37.758;2023-01-05T04:28:19;26.78;35.68
75985;DHT22;65033;44.660;37.758;2023-01-05T04:29:33;26.77;35.69
75985;DHT22;65033;44.660;37.758;2023-01-05T04:30:49;26.76;35.68
75985;DHT22;65033;44.660;37.758;2023-01-05T04:32:04;26.76;35.69
75985;DHT22;65033;44.660;37.758;2023-01-05T04:33:18;26.76;35.72
75985;DHT22;65033;44.660;37.758;2023-01-05T04:34:32;26.75;35.70
75985;DHT22;65033;44.660;37.758;2023-01-05T04:35:46;26.76;35.67
75985;DHT22;65033;44.660;37.758;2023-01-05T04:37:01;26.75;35.77
75985;DHT22;65033;44.660;37.758;2023-01-05T04:38:16;26.77;35.74
75985;DHT22;65033;44.660;37.758;2023-01-05T04:39:30;26.77;35.69
75985;DHT22;65033;44.660;37.758;2023-01-05T04:40:47;26.78;35.64
75985;DHT22;65033;44.660;37.758;2023-01-05T04:42:01;26.76;35.60
75985;DHT22;65033;44.660;37.758;2023-01-05T04:43:15;26.78;35.56
75985;DHT22;65033;44.660;37.758;2023-01-05T04:44:29;26.77;35.64
75985;DHT22;65033;44.660;37.758;2023-01-05T04:45:45;26.79;35.72
75985;DHT22;65033;44.660;37.758;2023-01-05T04:47:00;26.79;35.29
75985;DHT22;65033;44.660;37.758;2023-01-05T04:48:14;26.77;35.24
75985;DHT22;65033;44.660;37.758;2023-01-05T04:49:28;26.77;35.31
75985;DHT22;65033;44.660;37.758;2023-01-05T04:50:42;26.76;35.26
75985;DHT22;65033;44.660;37.758;2023-01-05T04:51:55;26.77;35.25
75985;DHT22;65033;44.660;37.758;2023-01-05T04:53:11;26.76;35.24
75985;DHT22;65033;44.660;37.758;2023-01-05T04:54:27;26.77;35.24
75985;DHT22;65033;44.660;37.758;2023-01-05T04:55:40;26.76;35.28
75985;DHT22;65033;44.660;37.758;2023-01-05T04:56:56;26.76;35.26
75985;DHT22;65033;44.660;37.758;2023-01-05T04:58:10;26.77;35.24
75985;DHT22;65033;44.660;37.758;2023-01-05T04:59:25;26.77;35.23
75985;DHT22;65033;44.660;37.758;2023-01-05T05:00:42;26.77;35.32
75985;DHT22;65033;44.660;37.758;2023-01-05T05:01:56;26.78;35.34
75985;DHT22;65033;44.660;37.758;2023-01-05T05:03:11;26.77;35.45
75985;DHT22;65033;44.660;37.758;2023-01-05T05:04:25;26.78;35.38
75985;DHT22;65033;44.660;37.758;2023-01-05T05:05:39;26.77;35.40
75985;DHT22;65033;44.660;37.758;2023-01-05T05:06:53;26.77;35.52
75985;DHT22;65033;44.660;37.758;2023-01-05T05:08:11;26.78;35.50
75985;DHT22;65033;44.660;37.758;2023-01-05T05:09:25;26.79;35.60
75985;DHT22;65033;44.660;37.758;2023-01-05T05:10:39;26.78;35.56
75985;DHT22;65033;44.660;37.758;2023-01-05T05:11:53;26.79;35.58
75985;DHT22;65033;44.660;37.758;2023-01-05T05:13:08;26.80;35.69
75985;DHT22;65033;44.660;37.758;2023-01-05T05:14:22;26.80;35.70
75985;DHT22;65033;44.660;37.758;2023-01-05T05:15:36;26.81;35.72
75985;DHT22;65033;44.660;37.758;2023-01-05T05:16:50;26.81;35.75
75985;DHT22;65033;44.660;37.758;2023-01-05T05:18:03;26.80;35.73
75985;DHT22;65033;44.660;37.758;2023-01-05T05:19:20;26.80;35.75
75985;DHT22;65033;44.660;37.758;2023-01-05T05:20:34;26.80;35.76
75985;DHT22;65033;44.660;37.758;2023-01-05T05:21:47;26.79;35.82
75985;DHT22;65033;44.660;37.758;2023-01-05T05:23:01;26.80;35.79
75985;DHT22;65033;44.660;37.758;2023-01-05T05:24:18;26.80;35.81
75985;DHT22;65033;44.660;37.758;2023-01-05T05:25:33;26.80;35.78
75985;DHT22;65033;44.660;37.758;2023-01-05T05:26:47;26.82;35.66
75985;DHT22;65033;44.660;37.758;2023-01-05T05:28:00;26.80;35.51
75985;DHT22;65033;44.660;37.758;2023-01-05T05:29:14;26.81;35.29
75985;DHT22;65033;44.660;37.758;2023-01-05T05:30:28;26.81;35.37
75985;DHT22;65033;44.660;37.758;2023-01-05T05:31:41;26.82;35.46
75985;DHT22;65033;44.660;37.758;2023-01-05T05:32:54;26.81;35.52
75985;DHT22;65033;44.660;37.758;2023-01-05T05:34:08;26.82;35.54
75985;DHT22;65033;44.660;37.758;2023-01-05T05:35:21;26.84;35.60
75985;DHT22;65033;44.660;37.758;2023-01-05T05:36:35;26.85;35.56
75985;DHT22;65033;44.660;37.758;2023-01-05T05:37:49;26.85;35.48
75985;DHT22;65033;44.660;37.758;2023-01-05T05:39:06;26.89;35.52
75985;DHT22;65033;44.660;37.758;2023-01-05T05:40:21;26.90;35.50
75985;DHT22;65033;44.660;37.758;2023-01-05T05:41:34;26.91;35.53
75985;DHT22;65033;44.660;37.758;2023-01-05T05:42:47;26.92;35.28
75985;DHT22;65033;44.660;37.758;2023-01-05T05:44:01;26.94;34.92
75985;DHT22;65033;44.660;37.758;2023-01-05T05:45:15;26.95;34.66
75985;DHT22;65033;44.660;37.758;2023-01-05T05:46:28;26.97;34.63
75985;DHT22;65033;44.660;37.758;2023-01-05T05:47:42;26.99;34.64
75985;DHT22;65033;44.660;37.758;2023-01-05T05:48:57;27.01;34.71
75985;DHT22;65033;44.660;37.758;2023-01-05T05:50:10;27.05;34.81
75985;DHT22;65033;44.660;37.758;2023-01-05T05:51:24;27.06;34.72
75985;DHT22;65033;44.660;37.758;2023-01-05T05:52:38;27.08;34.83
75985;DHT22;65033;44.660;37.758;2023-01-05T05:53:52;27.11;34.87
75985;DHT22;65033;44.660;37.758;2023-01-05T05:55:07;27.13;34.91
75985;DHT22;65033;44.660;37.758;2023-01-05T05:56:22;27.16;34.99
75985;DHT22;65033;44.660;37.758;2023-01-05T05:57:35;27.19;34.85
75985;DHT22;65033;44.660;37.758;2023-01-05T05:58:48;27.22;34.74
75985;DHT22;65033;44.660;37.758;2023-01-05T06:00:04;27.25;34.65
75985;DHT22;65033;44.660;37.758;2023-01-05T06:01:24;27.30;34.66
75985;DHT22;65033;44.660;37.758;2023-01-05T06:02:39;27.34;34.54
75985;DHT22;65033;44.660;37.758;2023-01-05T06:03:52;27.37;34.57
75985;DHT22;65033;44.660;37.758;2023-01-05T06:05:06;27.40;34.63
75985;DHT22;65033;44.660;37.758;2023-01-05T06:06:20;27.43;34.53
75985;DHT22;65033;44.660;37.758;2023-01-05T06:07:33;27.49;34.47
75985;DHT22;65033;44.660;37.758;2023-01-05T06:08:46;27.52;34.35
75985;DHT22;65033;44.660;37.758;2023-01-05T06:10:00;27.54;34.28
75985;DHT22;65033;44.660;37.758;2023-01-05T06:11:13;27.59;34.18
75985;DHT22;65033;44.660;37.758;2023-01-05T06:12:28;27.63;34.13
75985;DHT22;65033;44.660;37.758;2023-01-05T06:13:42;27.65;34.19
75985;DHT22;65033;44.660;37.758;2023-01-05T06:14:55;27.69;34.12
75985;DHT22;65033;44.660;37.758;2023-01-05T06:16:09;27.72;33.99
75985;DHT22;65033;44.660;37.758;2023-01-05T06:17:23;27.76;33.95
75985;DHT22;65033;44.660;37.758;2023-01-05T06:18:36;27.81;33.89
75985;DHT22;65033;44.660;37.758;2023-01-05T06:19:49;27.83;33.83
75985;DHT22;65033;44.660;37.758;2023-01-05T06:21:03;27.86;33.83
75985;DHT22;65033;44.660;37.758;2023-01-05T06:22:16;27.88;33.72
75985;DHT22;65033;44.660;37.758;2023-01-05T06:23:30;27.90;33.78
75985;DHT22;65033;44.660;37.758;2023-01-05T06:24:43;27.91;33.80
75985;DHT22;65033;44.660;37.758;2023-01-05T06:25:57;27.91;33.89
75985;DHT22;65033;44.660;37.758;2023-01-05T06:27:10;27.93;33.83
75985;DHT22;65033;44.660;37.758;2023-01-05T06:28:25;27.94;33.84
75985;DHT22;65033;44.660;37.758;2023-01-05T06:29:39;27.91;33.90
75985;DHT22;65033;44.660;37.758;2023-01-05T06:30:52;27.91;33.88
75985;DHT22;65033;44.660;37.758;2023-01-05T06:32:06;27.90;33.96
75985;DHT22;65033;44.660;37.758;2023-01-05T06:33:19;27.89;33.96
75985;DHT22;65033;44.660;37.758;2023-01-05T06:34:32;27.90;34.05
75985;DHT22;65033;44.660;37.758;2023-01-05T06:35:46;27.94;34.01
75985;DHT22;65033;44.660;37.758;2023-01-05T06:36:59;27.94;33.99
75985;DHT22;65033;44.660;37.758;2023-01-05T06:38:14;27.97;33.92
75985;DHT22;65033;44.660;37.758;2023-01-05T06:39:28;27.98;33.83
75985;DHT22;65033;44.660;37.758;2023-01-05T06:40:42;28.01;33.86
75985;DHT22;65033;44.660;37.758;2023-01-05T06:41:56;28.04;33.75
75985;DHT22;65033;44.660;37.758;2023-01-05T06:43:10;28.06;33.67
75985;DHT22;65033;44.660;37.758;2023-01-05T06:44:25;28.11;33.68
75985;DHT22;65033;44.660;37.758;2023-01-05T06:45:38;28.13;33.51
75985;DHT22;65033;44.660;37.758;2023-01-05T06:46:52;28.16;33.60
75985;DHT22;65033;44.660;37.758;2023-01-05T06:48:05;28.17;33.41
75985;DHT22;65033;44.660;37.758;2023-01-05T06:49:19;28.19;33.40
75985;DHT22;65033;44.660;37.758;2023-01-05T06:50:32;28.21;33.39
75985;DHT22;65033;44.660;37.758;2023-01-05T06:51:46;28.24;33.38
75985;DHT22;65033;44.660;37.758;2023-01-05T06:52:59;28.25;33.37
75985;DHT22;65033;44.660;37.758;2023-01-05T06:54:13;28.26;33.30
75985;DHT22;65033;44.660;37.758;2023-01-05T06:55:27;28.28;33.31
75985;DHT22;65033;44.660;37.758;2023-01-05T06:56:40;28.28;33.34
75985;DHT22;65033;44.660;37.758;2023-01-05T06:57:54;28.30;33.32
75985;DHT22;65033;44.660;37.758;2023-01-05T06:59:12;28.31;33.39
75985;DHT22;65033;44.660;37.758;2023-01-05T07:00:28;28.31;33.36
75985;DHT22;65033;44.660;37.758;2023-01-05T07:01:42;28.32;33.36
75985;DHT22;65033;44.660;37.758;2023-01-05T07:02:56;28.31;32.42
75985;DHT22;65033;44.660;37.758;2023-01-05T07:04:09;28.33;31.77
75985;DHT22;65033;44.660;37.758;2023-01-05T07:05:22;28.35;31.85
75985;DHT22;65033;44.660;37.758;2023-01-05T07:06:36;28.38;32.12
75985;DHT22;65033;44.660;37.758;2023-01-05T07:07:50;28.40;32.25
75985;DHT22;65033;44.660;37.758;2023-01-05T07:09:03;28.43;32.47
75985;DHT22;65033;44.660;37.758;2023-01-05T07:10:17;28.43;32.42
75985;DHT22;65033;44.660;37.758;2023-01-05T07:11:30;28.47;32.32
75985;DHT22;65033;44.660;37.758;2023-01-05T07:12:44;28.47;32.41
75985;DHT22;65033;44.660;37.758;2023-01-05T07:13:57;28.49;32.44
75985;DHT22;65033;44.660;37.758;2023-01-05T07:15:11;28.52;32.72
75985;DHT22;65033;44.660;37.758;2023-01-05T07:16:26;28.54;32.98
75985;DHT22;65033;44.660;37.758;2023-01-05T07:17:39;28.54;33.34
75985;DHT22;65033;44.660;37.758;2023-01-05T07:18:52;28.57;33.15
75985;DHT22;65033;44.660;37.758;2023-01-05T07:20:07;28.60;33.18
75985;DHT22;65033;44.660;37.758;2023-01-05T07:21:20;28.60;33.24
75985;DHT22;65033;44.660;37.758;2023-01-05T07:22:34;28.63;33.28
75985;DHT22;65033;44.660;37.758;2023-01-05T07:23:47;28.63;33.44
75985;DHT22;65033;44.660;37.758;2023-01-05T07:25:01;28.65;33.43
75985;DHT22;65033;44.660;37.758;2023-01-05T07:26:14;28.68;33.34
75985;DHT22;65033;44.660;37.758;2023-01-05T07:27:28;28.70;33.44
75985;DHT22;65033;44.660;37.758;2023-01-05T07:28:41;28.71;33.36
75985;DHT22;65033;44.660;37.758;2023-01-05T07:29:55;28.74;33.24
75985;DHT22;65033;44.660;37.758;2023-01-05T07:31:08;28.75;33.25
75985;DHT22;65033;44.660;37.758;2023-01-05T07:32:23;28.75;33.36
75985;DHT22;65033;44.660;37.758;2023-01-05T07:33:37;28.75;33.37
75985;DHT22;65033;44.660;37.758;2023-01-05T07:34:51;28.77;33.48
75985;DHT22;65033;44.660;37.758;2023-01-05T07:36:07;28.78;33.47
75985;DHT22;65033;44.660;37.758;2023-01-05T07:37:21;28.78;33.41
75985;DHT22;65033;44.660;37.758;2023-01-05T07:38:36;28.77;33.50
75985;DHT22;65033;44.660;37.758;2023-01-05T07:39:50;28.79;33.56
75985;DHT22;65033;44.660;37.758;2023-01-05T07:41:03;28.78;33.54
75985;DHT22;65033;44.660;37.758;2023-01-05T07:42:17;28.77;33.62
75985;DHT22;65033;44.660;37.758;2023-01-05T07:43:32;28.77;33.78
75985;DHT22;65033;44.660;37.758;2023-01-05T07:44:47;28.76;33.67
75985;DHT22;65033;44.660;37.758;2023-01-05T07:46:02;28.75;33.80
75985;DHT22;65033;44.660;37.758;2023-01-05T07:47:15;28.76;33.84
75985;DHT22;65033;44.660;37.758;2023-01-05T07:48:30;28.76;33.86
75985;DHT22;65033;44.660;37.758;2023-01-05T07:49:44;28.76;33.98
75985;DHT22;65033;44.660;37.758;2023-01-05T07:51:02;28.73;33.72
75985;DHT22;65033;44.660;37.758;2023-01-05T07:52:16;28.75;33.68
75985;DHT22;65033;44.660;37.758;2023-01-05T07:53:31;28.72;33.34
75985;DHT22;65033;44.660;37.758;2023-01-05T07:54:46;28.73;33.27
75985;DHT22;65033;44.660;37.758;2023-01-05T07:56:00;28.72;33.40
75985;DHT22;65033;44.660;37.758;2023-01-05T07:57:14;28.71;33.45